createdAt,value
2022-10-28T00:01:06.295Z,23.25
2022-10-28T00:03:33.836Z,20.13
2022-10-28T00:06:09.712Z,20.05
2022-10-28T00:08:37.273Z,21.45
2022-10-28T00:11:09.539Z,24.45
2022-10-28T00:13:37.125Z,36.28
2022-10-28T00:16:12.487Z,35.63
2022-10-28T00:18:40.033Z,26.95
2022-10-28T00:21:16.274Z,15.02
2022-10-28T00:23:44.035Z,17.88
2022-10-28T00:26:26.962Z,10.90
2022-10-28T00:29:02.432Z,18.90
2022-10-28T00:31:30.615Z,17.08
2022-10-28T00:33:59.950Z,15.60
2022-10-28T00:36:29.563Z,15.02
2022-10-28T00:38:57.534Z,16.05
2022-10-28T00:41:27.862Z,10.32
2022-10-28T00:43:58.020Z,11.30
2022-10-28T00:46:41.810Z,15.18
2022-10-28T00:49:29.842Z,13.98
2022-10-28T00:52:06.621Z,13.82
2022-10-28T00:54:35.376Z,13.30
2022-10-28T00:57:05.984Z,11.13
2022-10-28T00:59:37.160Z,7.25
2022-10-28T01:02:05.492Z,6.65
2022-10-28T01:04:33.289Z,10.50
2022-10-28T01:07:02.172Z,8.07
2022-10-28T01:09:29.656Z,7.88
2022-10-28T01:12:27.947Z,5.25
2022-10-28T01:15:20.574Z,6.03
2022-10-28T01:17:57.788Z,5.85
2022-10-28T01:20:27.698Z,5.72
2022-10-28T01:23:22.456Z,7.32
2022-10-28T01:26:23.920Z,6.57
2022-10-28T01:29:19.536Z,6.10
2022-10-28T01:32:08.624Z,5.90
2022-10-28T01:34:54.035Z,7.55
2022-10-28T01:37:44.590Z,6.40
2022-10-28T01:40:21.299Z,5.72
2022-10-28T01:42:54.799Z,6.60
2022-10-28T01:45:31.408Z,5.03
2022-10-28T01:48:04.248Z,5.38
2022-10-28T01:51:08.980Z,4.57
2022-10-28T01:53:41.852Z,4.95
2022-10-28T01:56:16.660Z,5.72
2022-10-28T01:58:44.788Z,5.93
2022-10-28T02:01:12.385Z,5.25
2022-10-28T02:03:39.674Z,5.22
2022-10-28T02:06:14.495Z,5.03
2022-10-28T02:09:08.384Z,6.05
2022-10-28T02:11:41.199Z,5.20
2022-10-28T02:14:14.353Z,5.57
2022-10-28T02:16:50.584Z,6.00
2022-10-28T02:19:47.363Z,5.80
2022-10-28T02:22:23.508Z,6.13
2022-10-28T02:24:54.894Z,5.40
2022-10-28T02:27:38.184Z,7.10
2022-10-28T02:30:09.651Z,6.53
2022-10-28T02:32:44.633Z,7.22
2022-10-28T02:35:20.857Z,6.63
2022-10-28T02:37:50.647Z,6.50
2022-10-28T02:40:25.343Z,7.07
2022-10-28T02:43:00.079Z,6.93
2022-10-28T02:45:35.807Z,6.80
2022-10-28T02:48:08.403Z,6.18
2022-10-28T02:50:39.829Z,6.07
2022-10-28T02:53:35.485Z,6.72
2022-10-28T02:56:06.944Z,6.30
2022-10-28T02:58:41.165Z,6.00
2022-10-28T03:01:08.422Z,6.03
2022-10-28T03:03:35.516Z,5.45
2022-10-28T03:06:02.520Z,5.85
2022-10-28T03:08:29.477Z,5.43
2022-10-28T03:10:56.433Z,4.68
2022-10-28T03:13:23.577Z,4.85
2022-10-28T03:15:50.555Z,4.35
2022-10-28T03:18:17.473Z,6.72
2022-10-28T03:20:44.359Z,5.22
2022-10-28T03:23:12.194Z,5.53
2022-10-28T03:25:39.526Z,4.93
2022-10-28T03:28:06.706Z,4.20
2022-10-28T03:30:33.594Z,5.97
2022-10-28T03:33:01.232Z,4.50
2022-10-28T03:35:28.211Z,5.00
2022-10-28T03:37:55.666Z,7.38
2022-10-28T03:40:22.944Z,8.25
2022-10-28T03:42:50.123Z,9.00
2022-10-28T03:45:17.282Z,7.60
2022-10-28T03:47:45.414Z,5.18
2022-10-28T03:50:12.389Z,7.05
2022-10-28T03:52:39.736Z,6.97
2022-10-28T03:55:08.805Z,7.05
2022-10-28T03:57:36.134Z,6.38
2022-10-28T04:00:05.212Z,6.40
2022-10-28T04:02:38.875Z,4.95
2022-10-28T04:05:06.438Z,4.50
2022-10-28T04:07:33.586Z,4.22
2022-10-28T04:10:01.178Z,4.75
2022-10-28T04:12:28.373Z,4.82
2022-10-28T04:14:55.610Z,5.07
2022-10-28T04:17:22.692Z,5.93
2022-10-28T04:19:49.980Z,6.47
2022-10-28T04:22:16.887Z,5.53
2022-10-28T04:24:43.797Z,5.00
2022-10-28T04:27:10.711Z,5.55
2022-10-28T04:29:37.623Z,5.72
2022-10-28T04:32:04.700Z,5.05
2022-10-28T04:34:32.083Z,5.70
2022-10-28T04:36:59.641Z,5.85
2022-10-28T04:39:26.754Z,5.47
2022-10-28T04:41:54.634Z,5.65
2022-10-28T04:44:21.529Z,5.45
2022-10-28T04:46:49.071Z,5.68
2022-10-28T04:49:16.412Z,5.43
2022-10-28T04:51:43.651Z,5.75
2022-10-28T04:54:10.712Z,5.22
2022-10-28T04:56:37.677Z,5.38
2022-10-28T04:59:04.725Z,5.07
2022-10-28T05:01:31.825Z,5.70
2022-10-28T05:03:59.752Z,6.18
2022-10-28T05:06:26.613Z,5.82
2022-10-28T05:08:53.866Z,6.75
2022-10-28T05:11:21.253Z,7.40
2022-10-28T05:13:48.507Z,6.10
2022-10-28T05:16:15.471Z,6.97
2022-10-28T05:21:15.500Z,7.45
2022-10-28T05:23:44.377Z,5.72
2022-10-28T05:26:11.783Z,5.50
2022-10-28T05:28:38.671Z,4.80
2022-10-28T05:31:06.258Z,5.72
2022-10-28T05:33:36.007Z,5.28
2022-10-28T05:36:03.257Z,5.90
2022-10-28T05:38:30.505Z,5.43
2022-10-28T05:40:57.757Z,4.95
2022-10-28T05:43:24.645Z,4.13
2022-10-28T05:45:56.601Z,4.60
2022-10-28T05:48:24.418Z,5.30
2022-10-28T05:50:51.383Z,4.95
2022-10-28T05:53:18.813Z,6.22
2022-10-28T05:55:47.774Z,5.68
2022-10-28T05:58:15.863Z,4.32
2022-10-28T06:00:43.295Z,5.90
2022-10-28T06:03:12.274Z,6.63
2022-10-28T06:05:43.860Z,9.48
2022-10-28T06:08:12.934Z,7.68
2022-10-28T06:10:40.714Z,7.88
2022-10-28T06:13:07.853Z,7.47
2022-10-28T06:15:34.819Z,7.57
2022-10-28T06:18:02.286Z,8.07
2022-10-28T06:20:29.443Z,5.38
2022-10-28T06:22:56.623Z,5.88
2022-10-28T06:25:25.034Z,6.35
2022-10-28T06:27:54.833Z,7.47
2022-10-28T06:30:23.685Z,7.15
2022-10-28T06:32:50.548Z,6.07
2022-10-28T06:35:18.904Z,7.13
2022-10-28T06:37:45.829Z,7.32
2022-10-28T06:40:13.104Z,7.78
2022-10-28T06:42:40.709Z,7.00
2022-10-28T06:45:08.308Z,8.73
2022-10-28T06:47:40.577Z,8.80
2022-10-28T06:50:09.390Z,9.00
2022-10-28T06:52:36.590Z,7.95
2022-10-28T06:55:04.107Z,8.02
2022-10-28T06:57:32.156Z,8.10
2022-10-28T06:59:59.721Z,7.80
2022-10-28T07:02:26.928Z,8.55
2022-10-28T07:04:54.636Z,8.20
2022-10-28T07:07:21.580Z,7.78
2022-10-28T07:09:49.265Z,7.90
2022-10-28T07:12:19.829Z,9.82
2022-10-28T07:14:46.986Z,9.40
2022-10-28T07:17:13.868Z,9.23
2022-10-28T07:19:41.942Z,7.82
2022-10-28T07:22:08.863Z,8.60
2022-10-28T07:24:35.944Z,9.27
2022-10-28T07:27:02.934Z,8.25
2022-10-28T07:29:29.886Z,9.27
2022-10-28T07:31:57.566Z,10.05
2022-10-28T07:34:27.147Z,10.57
2022-10-28T07:36:55.746Z,10.05
2022-10-28T07:39:23.092Z,9.68
2022-10-28T07:41:50.172Z,8.75
2022-10-28T07:44:17.309Z,9.93
2022-10-28T07:46:44.359Z,9.18
2022-10-28T07:49:11.272Z,9.05
2022-10-28T07:51:38.204Z,8.90
2022-10-28T07:54:05.250Z,8.85
2022-10-28T07:56:32.275Z,8.90
2022-10-28T07:59:00.752Z,9.27
2022-10-28T08:01:27.840Z,9.07
2022-10-28T08:03:54.960Z,8.52
2022-10-28T08:06:22.338Z,8.52
2022-10-28T08:08:54.768Z,9.15
2022-10-28T08:11:23.839Z,10.25
2022-10-28T08:13:55.364Z,10.52
2022-10-28T08:16:22.829Z,11.43
2022-10-28T08:18:49.882Z,11.38
2022-10-28T08:21:17.242Z,13.15
2022-10-28T08:23:46.748Z,15.80
2022-10-28T08:26:16.144Z,15.98
2022-10-28T08:28:43.423Z,15.45
2022-10-28T08:31:12.580Z,17.35
2022-10-28T08:33:42.714Z,15.48
2022-10-28T08:36:12.189Z,15.70
2022-10-28T08:38:44.301Z,20.58
2022-10-28T08:41:30.189Z,16.42
2022-10-28T08:44:17.501Z,16.75
2022-10-28T08:47:03.088Z,15.40
2022-10-28T08:49:33.610Z,13.35
2022-10-28T08:52:14.139Z,13.95
2022-10-28T08:54:50.629Z,14.27
2022-10-28T08:57:26.040Z,14.68
2022-10-28T08:59:55.046Z,13.40
2022-10-28T09:02:25.349Z,13.07
2022-10-28T09:05:06.584Z,13.93
2022-10-28T09:07:37.306Z,14.93
2022-10-28T09:10:06.000Z,14.27
2022-10-28T09:12:49.353Z,14.63
2022-10-28T09:15:38.272Z,12.10
2022-10-28T09:18:06.028Z,11.15
2022-10-28T09:20:54.750Z,9.95
2022-10-28T09:23:45.658Z,10.23
2022-10-28T09:26:42.596Z,11.57
2022-10-28T09:29:19.006Z,12.20
2022-10-28T09:31:50.331Z,11.68
2022-10-28T09:34:29.903Z,11.63
2022-10-28T09:37:20.101Z,10.02
2022-10-28T09:39:51.054Z,9.75
2022-10-28T09:42:25.602Z,9.20
2022-10-28T09:45:02.649Z,9.05
2022-10-28T09:47:38.584Z,9.02
2022-10-28T09:50:15.927Z,9.20
2022-10-28T09:53:21.815Z,7.70
2022-10-28T09:55:51.572Z,8.68
2022-10-28T09:58:19.295Z,9.20
2022-10-28T10:00:46.771Z,8.35
2022-10-28T10:03:17.263Z,7.72
2022-10-28T10:05:49.878Z,6.88
2022-10-28T10:08:20.195Z,8.82
2022-10-28T10:11:00.940Z,7.90
2022-10-28T10:13:33.254Z,7.22
2022-10-28T10:16:05.958Z,6.95
2022-10-28T10:18:34.324Z,6.47
2022-10-28T10:21:01.683Z,7.40
2022-10-28T10:23:46.515Z,6.38
2022-10-28T10:26:16.353Z,5.82
2022-10-28T10:28:49.576Z,5.00
2022-10-28T10:31:20.411Z,4.90
2022-10-28T10:33:58.903Z,4.78
2022-10-28T10:36:29.112Z,4.53
2022-10-28T10:38:56.897Z,4.55
2022-10-28T10:41:36.015Z,4.28
2022-10-28T10:44:22.888Z,3.70
2022-10-28T10:47:06.502Z,3.30
2022-10-28T10:49:37.201Z,3.92
2022-10-28T10:52:17.585Z,4.00
2022-10-28T10:55:00.055Z,4.25
2022-10-28T10:57:27.814Z,3.90
2022-10-28T10:59:56.752Z,3.72
2022-10-28T11:02:37.185Z,3.97
2022-10-28T11:05:07.772Z,3.30
2022-10-28T11:07:36.614Z,4.60
2022-10-28T11:10:05.509Z,3.30
2022-10-28T11:12:39.047Z,3.95
2022-10-28T11:15:09.502Z,3.63
2022-10-28T11:17:36.408Z,3.65
2022-10-28T11:20:44.413Z,3.80
2022-10-28T11:23:18.276Z,3.63
2022-10-28T11:25:50.810Z,4.35
2022-10-28T11:28:39.276Z,4.05
2022-10-28T11:31:25.051Z,3.45
2022-10-28T11:34:24.191Z,4.03
2022-10-28T11:37:39.336Z,5.47
2022-10-28T11:40:18.247Z,3.70
2022-10-28T11:43:25.721Z,3.60
2022-10-28T11:46:17.399Z,3.50
2022-10-28T11:48:52.814Z,2.90
2022-10-28T11:51:41.311Z,2.90
2022-10-28T11:54:29.615Z,3.08
2022-10-28T11:57:07.546Z,3.20
2022-10-28T11:59:52.910Z,3.30
2022-10-28T12:02:52.324Z,3.25
2022-10-28T12:05:34.327Z,3.28
2022-10-28T12:08:26.779Z,3.10
2022-10-28T12:11:39.558Z,3.80
2022-10-28T12:14:41.460Z,3.67
2022-10-28T12:17:17.524Z,4.72
2022-10-28T12:20:14.612Z,5.13
2022-10-28T12:22:54.908Z,3.80
2022-10-28T12:25:26.710Z,4.75
2022-10-28T12:28:03.195Z,4.30
2022-10-28T12:33:15.752Z,4.30
2022-10-28T12:35:51.511Z,4.65
2022-10-28T12:38:42.103Z,4.10
2022-10-28T12:44:20.276Z,3.33
2022-10-28T12:47:14.948Z,3.72
2022-10-28T12:50:08.955Z,3.47
2022-10-28T12:52:44.393Z,4.93
2022-10-28T12:55:17.894Z,4.25
2022-10-28T12:57:49.873Z,4.15
2022-10-28T13:00:23.488Z,3.70
2022-10-28T13:03:05.508Z,5.25
2022-10-28T13:05:46.711Z,8.70
2022-10-28T13:08:46.196Z,11.18
2022-10-28T13:11:15.990Z,7.85
2022-10-28T13:13:45.677Z,8.38
2022-10-28T13:16:24.401Z,5.90
2022-10-28T13:19:00.013Z,10.95
2022-10-28T13:21:59.041Z,16.13
2022-10-28T13:24:42.928Z,21.48
2022-10-28T13:27:13.743Z,9.40
2022-10-28T13:29:43.538Z,22.10
2022-10-28T13:32:35.757Z,14.70
2022-10-28T13:35:23.175Z,5.15
2022-10-28T13:37:53.063Z,5.78
2022-10-28T13:40:32.282Z,8.30
2022-10-28T13:43:01.090Z,5.32
2022-10-28T13:45:48.695Z,2.92
2022-10-28T13:48:41.589Z,4.97
2022-10-28T13:51:11.706Z,9.35
2022-10-28T13:53:45.994Z,8.52
2022-10-28T13:56:30.534Z,5.10
2022-10-28T13:59:02.571Z,5.25
2022-10-28T14:01:38.876Z,9.75
2022-10-28T14:04:19.729Z,10.48
2022-10-28T14:06:48.175Z,8.68
2022-10-28T14:09:29.448Z,9.35
2022-10-28T14:12:17.968Z,6.18
2022-10-28T14:14:58.470Z,10.80
2022-10-28T14:17:36.122Z,5.40
2022-10-28T14:20:06.273Z,8.05
2022-10-28T14:22:37.020Z,10.00
2022-10-28T14:25:41.937Z,5.13
2022-10-28T14:28:27.421Z,9.50
2022-10-28T14:31:09.684Z,6.95
2022-10-28T14:33:42.676Z,12.05
2022-10-28T14:36:18.783Z,5.70
2022-10-28T14:39:04.322Z,13.20
2022-10-28T14:41:34.987Z,7.80
2022-10-28T14:44:17.000Z,3.88
2022-10-28T14:46:56.239Z,4.15
2022-10-28T14:49:45.569Z,8.32
2022-10-28T14:52:20.025Z,5.35
2022-10-28T14:54:51.684Z,7.55
2022-10-28T14:57:22.934Z,6.88
2022-10-28T14:59:51.803Z,4.03
2022-10-28T15:02:22.763Z,4.35
2022-10-28T15:05:03.256Z,4.32
2022-10-28T15:07:35.621Z,4.20
2022-10-28T15:10:28.791Z,6.43
2022-10-28T15:12:58.131Z,6.22
2022-10-28T15:15:29.774Z,4.88
2022-10-28T15:17:57.987Z,7.20
2022-10-28T15:20:32.513Z,6.07
2022-10-28T15:23:20.192Z,6.45
2022-10-28T15:26:05.479Z,6.22
2022-10-28T15:28:32.890Z,7.03
2022-10-28T15:30:59.811Z,5.75
2022-10-28T15:33:30.898Z,5.80
2022-10-28T15:36:17.693Z,6.10
2022-10-28T15:38:47.285Z,6.45
2022-10-28T15:41:23.841Z,7.75
2022-10-28T15:43:56.301Z,7.40
2022-10-28T15:46:24.900Z,7.95
2022-10-28T15:48:53.446Z,8.40
2022-10-28T15:51:21.702Z,7.65
2022-10-28T15:53:55.890Z,7.80
2022-10-28T15:56:27.352Z,8.02
2022-10-28T15:59:07.349Z,6.20
2022-10-28T16:01:41.189Z,4.85
2022-10-28T16:04:23.242Z,6.97
2022-10-28T16:06:55.939Z,12.55
2022-10-28T16:09:35.726Z,9.93
2022-10-28T16:12:13.080Z,11.82
2022-10-28T16:14:42.791Z,12.05
2022-10-28T16:17:19.116Z,10.52
2022-10-28T16:20:16.998Z,10.10
2022-10-28T16:22:46.023Z,14.50
2022-10-28T16:25:15.073Z,26.42
2022-10-28T16:27:42.282Z,37.17
2022-10-28T16:30:10.562Z,40.38
2022-10-28T16:32:39.302Z,41.45
2022-10-28T16:35:15.274Z,28.45
2022-10-28T16:37:45.274Z,24.45
2022-10-28T16:40:37.608Z,26.27
2022-10-28T16:43:01.805Z,22.38
2022-10-28T16:45:29.130Z,23.92
2022-10-28T16:47:56.682Z,25.15
2022-10-28T16:50:25.041Z,15.75
2022-10-28T16:52:54.425Z,14.90
2022-10-28T16:55:21.431Z,20.13
2022-10-28T16:57:48.369Z,21.67
2022-10-28T17:00:16.387Z,28.33
2022-10-28T17:02:43.360Z,23.10
2022-10-28T17:05:20.022Z,19.88
2022-10-28T17:07:47.316Z,14.93
2022-10-28T17:10:15.243Z,11.73
2022-10-28T17:12:42.785Z,13.80
2022-10-28T17:15:10.816Z,9.23
2022-10-28T17:17:38.255Z,9.45
2022-10-28T17:20:06.074Z,7.70
2022-10-28T17:22:33.703Z,8.30
2022-10-28T17:25:00.679Z,13.50
2022-10-28T17:27:28.085Z,7.97
2022-10-28T17:29:55.352Z,7.78
2022-10-28T17:32:22.374Z,6.45
2022-10-28T17:34:50.155Z,4.95
2022-10-28T17:37:17.170Z,7.43
2022-10-28T17:39:44.878Z,8.95
2022-10-28T17:42:13.691Z,10.85
2022-10-28T17:44:44.151Z,11.57
2022-10-28T17:47:12.394Z,9.60
2022-10-28T17:49:39.396Z,10.85
2022-10-28T17:52:06.421Z,9.88
2022-10-28T17:54:34.073Z,10.02
2022-10-28T17:57:00.993Z,11.60
2022-10-28T17:59:28.416Z,12.43
2022-10-28T18:01:55.556Z,15.50
2022-10-28T18:04:26.421Z,17.10
2022-10-28T18:06:55.331Z,15.98
2022-10-28T18:09:23.055Z,13.60
2022-10-28T18:11:50.650Z,12.35
2022-10-28T18:14:18.011Z,11.20
2022-10-28T18:16:46.112Z,12.60
2022-10-28T18:19:13.881Z,11.65
2022-10-28T18:21:41.140Z,11.02
2022-10-28T18:24:08.559Z,11.80
2022-10-28T18:26:37.441Z,10.90
2022-10-28T18:29:06.395Z,10.80
2022-10-28T18:31:34.179Z,11.57
2022-10-28T18:34:02.794Z,9.27
2022-10-28T18:36:34.560Z,10.63
2022-10-28T18:39:04.524Z,11.50
2022-10-28T18:41:34.703Z,12.73
2022-10-28T18:44:09.891Z,13.55
2022-10-28T18:46:37.861Z,11.93
2022-10-28T18:49:05.612Z,11.88
2022-10-28T18:51:35.608Z,10.93
2022-10-28T18:54:02.680Z,12.80
2022-10-28T18:56:30.518Z,14.48
2022-10-28T18:58:58.679Z,14.48
2022-10-28T19:01:28.025Z,18.08
2022-10-28T19:04:00.370Z,17.50
2022-10-28T19:06:32.904Z,17.17
2022-10-28T19:09:02.397Z,19.45
2022-10-28T19:11:31.395Z,17.77
2022-10-28T19:14:06.447Z,18.63
2022-10-28T19:16:34.553Z,12.30
2022-10-28T19:19:03.169Z,13.20
2022-10-28T19:21:30.834Z,13.88
2022-10-28T19:23:57.781Z,15.55
2022-10-28T19:26:25.135Z,12.63
2022-10-28T19:28:52.362Z,12.77
2022-10-28T19:31:22.202Z,12.18
2022-10-28T19:33:49.322Z,12.85
2022-10-28T19:36:21.478Z,10.95
2022-10-28T19:38:50.033Z,11.60
2022-10-28T19:41:20.146Z,11.32
2022-10-28T19:43:47.706Z,11.23
2022-10-28T19:46:19.970Z,11.82
2022-10-28T19:48:49.384Z,11.25
2022-10-28T19:51:19.868Z,9.57
2022-10-28T19:53:51.616Z,11.07
2022-10-28T19:56:20.101Z,13.02
2022-10-28T19:58:49.711Z,12.48
2022-10-28T20:01:17.953Z,20.23
2022-10-28T20:03:49.217Z,13.40
2022-10-28T20:06:18.055Z,12.18
2022-10-28T20:08:47.166Z,13.15
2022-10-28T20:11:18.914Z,14.88
2022-10-28T20:13:56.303Z,13.70
2022-10-28T20:16:25.007Z,14.55
2022-10-28T20:18:53.195Z,16.02
2022-10-28T20:21:22.519Z,15.30
2022-10-28T20:23:53.747Z,14.93
2022-10-28T20:26:28.766Z,14.90
2022-10-28T20:28:57.114Z,17.35
2022-10-28T20:31:26.689Z,16.40
2022-10-28T20:34:00.895Z,17.02
2022-10-28T20:36:32.529Z,15.13
2022-10-28T20:39:03.142Z,14.23
2022-10-28T20:41:32.645Z,12.45
2022-10-28T20:44:00.344Z,12.25
2022-10-28T20:46:27.800Z,10.50
2022-10-28T20:48:56.542Z,11.45
2022-10-28T20:51:26.341Z,10.40
2022-10-28T20:53:53.562Z,12.10
2022-10-28T20:56:24.119Z,10.07
2022-10-28T20:58:52.495Z,10.40
2022-10-28T21:01:22.610Z,14.93
2022-10-28T21:03:53.833Z,16.45
2022-10-28T21:06:21.033Z,16.77
2022-10-28T21:08:48.401Z,16.73
2022-10-28T21:11:17.494Z,12.73
2022-10-28T21:13:49.326Z,13.60
2022-10-28T21:16:16.457Z,11.85
2022-10-28T21:18:43.447Z,13.38
2022-10-28T21:21:11.864Z,14.68
2022-10-28T21:23:39.114Z,13.88
2022-10-28T21:26:08.327Z,14.70
2022-10-28T21:28:36.367Z,14.52
2022-10-28T21:31:06.616Z,13.38
2022-10-28T21:33:36.066Z,13.30
2022-10-28T21:36:06.803Z,15.20
2022-10-28T21:38:35.131Z,14.70
2022-10-28T21:41:03.793Z,13.43
2022-10-28T21:43:34.761Z,14.07
2022-10-28T21:46:06.043Z,16.15
2022-10-28T21:48:35.645Z,11.40
2022-10-28T21:51:08.494Z,12.20
2022-10-28T21:53:39.699Z,12.10
2022-10-28T21:56:17.571Z,10.30
2022-10-28T21:58:47.873Z,10.68
2022-10-28T22:01:23.749Z,10.25
2022-10-28T22:03:54.687Z,10.38
2022-10-28T22:06:22.309Z,12.77
2022-10-28T22:08:49.237Z,19.20
2022-10-28T22:11:18.905Z,17.83
2022-10-28T22:13:46.423Z,20.40
2022-10-28T22:16:16.290Z,21.80
2022-10-28T22:18:44.654Z,18.77
2022-10-28T22:21:17.352Z,22.25
2022-10-28T22:23:44.695Z,19.52
2022-10-28T22:26:14.447Z,16.58
2022-10-28T22:28:41.666Z,16.17
2022-10-28T22:31:11.315Z,16.98
2022-10-28T22:33:38.998Z,14.40
2022-10-28T22:36:11.454Z,13.43
2022-10-28T22:38:38.971Z,12.18
2022-10-28T22:41:12.507Z,12.70
2022-10-28T22:43:40.644Z,12.45
2022-10-28T22:46:07.889Z,13.40
2022-10-28T22:48:34.913Z,14.57
2022-10-28T22:51:02.372Z,14.45
2022-10-28T22:53:29.484Z,14.75
2022-10-28T22:55:57.331Z,12.57
2022-10-28T22:58:26.436Z,13.73
2022-10-28T23:00:53.695Z,13.13
2022-10-28T23:03:20.641Z,11.63
2022-10-28T23:05:47.561Z,12.48
2022-10-28T23:08:17.069Z,15.35
2022-10-28T23:10:44.049Z,11.45
2022-10-28T23:13:12.910Z,8.95
2022-10-28T23:15:40.366Z,7.72
2022-10-28T23:18:07.296Z,9.40
2022-10-28T23:20:36.051Z,11.27
2022-10-28T23:23:03.743Z,10.85
2022-10-28T23:25:31.003Z,12.88
2022-10-28T23:27:58.205Z,10.85
2022-10-28T23:30:25.665Z,12.00
2022-10-28T23:32:52.616Z,13.35
2022-10-28T23:35:19.757Z,11.93
2022-10-28T23:37:47.267Z,12.13
2022-10-28T23:40:14.732Z,12.55
2022-10-28T23:42:41.758Z,10.65
2022-10-28T23:45:10.142Z,9.90
2022-10-28T23:47:37.033Z,6.80
2022-10-28T23:50:04.568Z,8.00
2022-10-28T23:52:32.288Z,7.88
2022-10-28T23:54:59.554Z,8.50
2022-10-28T23:57:26.521Z,9.15
2022-10-28T23:59:54.441Z,8.32
